createdAt,value
2022-08-05T00:01:36.304Z,99.90
2022-08-05T00:04:17.393Z,99.90
2022-08-05T00:06:45.253Z,99.90
2022-08-05T00:09:15.834Z,99.90
2022-08-05T00:11:48.440Z,99.90
2022-08-05T00:14:17.552Z,99.90
2022-08-05T00:16:52.487Z,99.90
2022-08-05T00:19:22.524Z,99.90
2022-08-05T00:21:50.750Z,99.90
2022-08-05T00:24:19.157Z,99.90
2022-08-05T00:26:53.399Z,99.90
2022-08-05T00:29:22.817Z,99.90
2022-08-05T00:32:13.364Z,99.90
2022-08-05T00:35:05.306Z,99.90
2022-08-05T00:37:50.707Z,99.90
2022-08-05T00:40:27.526Z,99.90
2022-08-05T00:42:57.812Z,99.90
2022-08-05T00:45:28.308Z,99.90
2022-08-05T00:48:10.988Z,99.90
2022-08-05T00:50:41.884Z,99.90
2022-08-05T00:54:01.110Z,99.90
2022-08-05T00:55:59.769Z,99.90
2022-08-05T00:58:27.836Z,99.90
2022-08-05T01:00:56.232Z,99.90
2022-08-05T01:03:24.638Z,99.90
2022-08-05T01:05:58.967Z,99.90
2022-08-05T01:08:40.884Z,99.90
2022-08-05T01:11:13.903Z,99.90
2022-08-05T01:13:59.623Z,99.90
2022-08-05T01:16:33.770Z,99.90
2022-08-05T01:19:06.575Z,99.90
2022-08-05T01:21:45.912Z,99.90
2022-08-05T01:24:37.298Z,99.90
2022-08-05T01:27:32.962Z,99.90
2022-08-05T01:30:02.642Z,99.90
2022-08-05T01:32:33.500Z,99.90
2022-08-05T01:35:02.412Z,99.90
2022-08-05T01:37:36.598Z,99.90
2022-08-05T01:40:05.257Z,99.90
2022-08-05T01:42:33.197Z,99.90
2022-08-05T01:45:02.060Z,99.90
2022-08-05T01:47:39.247Z,99.90
2022-08-05T01:50:15.389Z,99.90
2022-08-05T01:52:44.790Z,99.90
2022-08-05T01:55:19.255Z,99.90
2022-08-05T01:58:12.247Z,99.90
2022-08-05T02:00:36.861Z,99.90
2022-08-05T02:03:07.807Z,99.90
2022-08-05T02:05:59.863Z,99.90
2022-08-05T02:08:31.031Z,99.90
2022-08-05T02:11:06.941Z,99.90
2022-08-05T02:13:53.383Z,99.90
2022-08-05T02:16:44.089Z,99.90
2022-08-05T02:19:14.628Z,99.90
2022-08-05T02:21:46.816Z,99.90
2022-08-05T02:24:18.551Z,99.90
2022-08-05T02:26:53.931Z,99.90
2022-08-05T02:29:26.171Z,99.90
2022-08-05T02:32:19.734Z,99.90
2022-08-05T02:34:54.872Z,99.90
2022-08-05T02:37:23.781Z,99.90
2022-08-05T02:39:53.617Z,99.90
2022-08-05T02:42:27.332Z,99.90
2022-08-05T02:44:57.067Z,99.90
2022-08-05T02:47:25.109Z,99.90
2022-08-05T02:50:13.862Z,99.90
2022-08-05T02:52:45.745Z,99.90
2022-08-05T02:55:14.172Z,99.90
2022-08-05T02:58:10.378Z,99.90
2022-08-05T03:00:35.129Z,99.90
2022-08-05T03:03:10.391Z,99.90
2022-08-05T03:06:57.014Z,99.90
2022-08-05T03:08:30.023Z,99.90
2022-08-05T03:11:53.166Z,99.90
2022-08-05T03:13:51.089Z,99.90
2022-08-05T03:16:29.847Z,99.90
2022-08-05T03:18:59.980Z,99.90
2022-08-05T03:21:28.710Z,99.90
2022-08-05T03:23:57.780Z,99.90
2022-08-05T03:26:32.061Z,99.90
2022-08-05T03:29:00.434Z,99.90
2022-08-05T03:31:57.316Z,99.90
2022-08-05T03:34:16.571Z,99.90
2022-08-05T03:36:44.053Z,99.90
2022-08-05T03:39:13.073Z,99.90
2022-08-05T03:41:47.816Z,99.90
2022-08-05T03:44:20.224Z,99.90
2022-08-05T03:46:47.865Z,99.90
2022-08-05T03:49:16.000Z,99.90
2022-08-05T03:52:38.009Z,99.90
2022-08-05T03:55:53.363Z,99.90
2022-08-05T03:57:42.402Z,99.90
2022-08-05T04:00:12.363Z,99.90
2022-08-05T04:02:58.105Z,99.90
2022-08-05T04:05:33.883Z,99.90
2022-08-05T04:08:02.988Z,99.90
2022-08-05T04:10:37.945Z,99.90
2022-08-05T04:13:07.574Z,99.90
2022-08-05T04:15:36.113Z,99.90
2022-08-05T04:18:07.294Z,99.90
2022-08-05T04:20:37.392Z,99.90
2022-08-05T04:23:04.866Z,99.90
2022-08-05T04:25:57.371Z,99.90
2022-08-05T04:28:20.347Z,99.90
2022-08-05T04:30:58.714Z,99.90
2022-08-05T04:33:54.677Z,99.90
2022-08-05T04:36:44.731Z,99.90
2022-08-05T04:39:04.128Z,99.90
2022-08-05T04:41:37.739Z,99.90
2022-08-05T04:44:09.518Z,99.90
2022-08-05T04:46:38.405Z,99.90
2022-08-05T04:49:12.281Z,99.90
2022-08-05T04:51:45.333Z,99.90
2022-08-05T04:54:14.823Z,99.90
2022-08-05T04:56:42.389Z,99.90
2022-08-05T04:59:21.884Z,99.90
2022-08-05T05:02:06.812Z,99.90
2022-08-05T05:04:36.017Z,99.90
2022-08-05T05:07:09.431Z,99.90
2022-08-05T05:09:37.381Z,99.90
2022-08-05T05:12:06.147Z,99.90
2022-08-05T05:14:33.800Z,99.90
2022-08-05T05:17:07.302Z,99.90
2022-08-05T05:19:44.443Z,99.90
2022-08-05T05:22:24.396Z,99.90
2022-08-05T05:24:57.067Z,99.90
2022-08-05T05:27:45.847Z,99.90
2022-08-05T05:30:15.398Z,99.90
2022-08-05T05:33:00.233Z,99.90
2022-08-05T05:35:34.487Z,99.90
2022-08-05T05:38:09.139Z,99.90
2022-08-05T05:40:42.548Z,99.90
2022-08-05T05:43:16.192Z,99.90
2022-08-05T05:45:50.057Z,99.90
2022-08-05T05:48:17.537Z,99.90
2022-08-05T05:50:50.854Z,99.90
2022-08-05T05:53:20.877Z,99.90
2022-08-05T05:55:52.125Z,99.90
2022-08-05T05:58:32.068Z,99.90
2022-08-05T06:01:12.106Z,99.90
2022-08-05T06:04:00.961Z,99.90
2022-08-05T06:06:31.047Z,99.90
2022-08-05T06:09:00.771Z,99.90
2022-08-05T06:11:28.976Z,99.90
2022-08-05T06:13:56.985Z,99.90
2022-08-05T06:16:30.805Z,99.90
2022-08-05T06:19:01.796Z,99.90
2022-08-05T06:21:36.472Z,99.90
2022-08-05T06:24:06.129Z,99.90
2022-08-05T06:26:35.331Z,99.90
2022-08-05T06:29:15.573Z,99.90
2022-08-05T06:31:51.048Z,99.90
2022-08-05T06:34:19.961Z,99.90
2022-08-05T06:36:56.871Z,99.90
2022-08-05T06:39:27.832Z,99.90
2022-08-05T06:41:56.468Z,99.90
2022-08-05T06:44:26.283Z,99.90
2022-08-05T06:46:54.394Z,99.90
2022-08-05T06:50:00.466Z,99.90
2022-08-05T06:52:36.897Z,99.90
2022-08-05T06:54:57.136Z,99.90
2022-08-05T06:57:57.836Z,99.90
2022-08-05T07:00:12.540Z,99.90
2022-08-05T07:02:43.682Z,99.90
2022-08-05T07:05:18.674Z,99.90
2022-08-05T07:07:49.034Z,99.90
2022-08-05T07:10:16.674Z,99.90
2022-08-05T07:13:03.388Z,99.90
2022-08-05T07:16:04.800Z,99.90
2022-08-05T07:18:32.621Z,99.90
2022-08-05T07:21:05.545Z,99.90
2022-08-05T07:23:34.546Z,99.90
2022-08-05T07:26:07.998Z,99.90
2022-08-05T07:28:40.821Z,99.90
2022-08-05T07:31:08.256Z,99.90
2022-08-05T07:33:38.914Z,99.90
2022-08-05T07:36:19.936Z,99.90
2022-08-05T07:38:49.194Z,99.90
2022-08-05T07:42:14.448Z,99.90
2022-08-05T07:44:18.775Z,99.90
2022-08-05T07:46:49.259Z,99.90
2022-08-05T07:49:18.478Z,99.90
2022-08-05T07:51:53.186Z,99.90
2022-08-05T07:54:30.960Z,99.90
2022-08-05T07:57:17.965Z,99.90
2022-08-05T07:59:51.965Z,99.90
2022-08-05T08:02:26.623Z,99.90
2022-08-05T08:04:58.713Z,99.90
2022-08-05T08:07:28.482Z,99.90
2022-08-05T08:09:56.384Z,99.90
2022-08-05T08:12:35.673Z,99.90
2022-08-05T08:15:09.722Z,99.90
2022-08-05T08:17:46.306Z,99.90
2022-08-05T08:20:44.495Z,99.90
2022-08-05T08:23:07.589Z,99.90
2022-08-05T08:26:00.595Z,99.90
2022-08-05T08:28:35.672Z,99.90
2022-08-05T08:31:06.522Z,99.90
2022-08-05T08:33:37.344Z,99.90
2022-08-05T08:38:56.803Z,99.90
2022-08-05T08:41:52.445Z,99.90
2022-08-05T08:45:23.521Z,99.90
2022-08-05T08:47:34.581Z,99.90
2022-08-05T08:50:22.855Z,99.90
2022-08-05T08:52:47.425Z,99.90
2022-08-05T08:56:03.077Z,99.90
2022-08-05T08:58:07.148Z,99.90
2022-08-05T09:00:36.345Z,99.90
2022-08-05T09:03:05.819Z,99.90
2022-08-05T09:05:38.913Z,99.90
2022-08-05T09:08:26.554Z,99.90
2022-08-05T09:10:54.947Z,99.90
2022-08-05T09:13:23.480Z,99.90
2022-08-05T09:15:51.712Z,99.90
2022-08-05T09:18:19.628Z,99.90
2022-08-05T09:20:47.910Z,99.90
2022-08-05T09:23:21.931Z,99.90
2022-08-05T09:26:03.413Z,99.90
2022-08-05T09:28:34.234Z,99.90
2022-08-05T09:31:23.245Z,99.90
2022-08-05T09:34:07.139Z,99.90
2022-08-05T09:36:55.228Z,99.90
2022-08-05T09:39:41.187Z,99.90
2022-08-05T09:42:23.120Z,99.90
2022-08-05T09:46:05.156Z,99.90
2022-08-05T09:47:56.098Z,99.90
2022-08-05T09:50:43.614Z,99.90
2022-08-05T09:53:17.481Z,99.90
2022-08-05T09:56:03.629Z,99.90
2022-08-05T09:58:32.037Z,99.90
2022-08-05T10:01:00.913Z,99.90
2022-08-05T10:03:57.006Z,99.90
2022-08-05T10:06:19.352Z,99.90
2022-08-05T10:08:54.009Z,99.90
2022-08-05T10:11:23.621Z,99.90
2022-08-05T10:13:54.764Z,99.90
2022-08-05T10:16:37.701Z,99.90
2022-08-05T10:19:09.995Z,99.90
2022-08-05T10:21:39.997Z,99.90
2022-08-05T10:24:13.468Z,99.90
2022-08-05T10:26:51.441Z,99.90
2022-08-05T10:29:23.541Z,99.90
2022-08-05T10:32:54.224Z,99.90
2022-08-05T10:35:01.061Z,99.90
2022-08-05T10:37:41.312Z,99.90
2022-08-05T10:40:28.555Z,99.90
2022-08-05T10:42:59.893Z,99.90
2022-08-05T10:45:39.726Z,99.90
2022-08-05T10:48:36.036Z,99.90
2022-08-05T10:51:21.715Z,99.90
2022-08-05T10:53:58.442Z,99.90
2022-08-05T10:56:43.682Z,99.90
2022-08-05T11:00:03.062Z,99.90
2022-08-05T11:02:07.783Z,99.90
2022-08-05T11:04:48.675Z,99.90
2022-08-05T11:07:18.577Z,99.90
2022-08-05T11:10:03.693Z,99.90
2022-08-05T11:12:38.468Z,99.80
2022-08-05T11:15:19.695Z,99.20
2022-08-05T11:18:09.829Z,98.20
2022-08-05T11:20:47.676Z,97.30
2022-08-05T11:24:03.365Z,98.00
2022-08-05T11:26:29.182Z,97.40
2022-08-05T11:29:06.834Z,96.10
2022-08-05T11:31:54.345Z,96.80
2022-08-05T11:34:40.053Z,97.10
2022-08-05T11:38:29.279Z,96.90
2022-08-05T11:40:44.642Z,96.90
2022-08-05T11:43:20.767Z,97.00
2022-08-05T11:46:15.018Z,96.50
2022-08-05T11:48:43.774Z,96.70
2022-08-05T11:51:11.588Z,96.30
2022-08-05T11:54:02.365Z,96.80
2022-08-05T11:56:50.500Z,97.50
2022-08-05T11:59:21.476Z,97.20
2022-08-05T12:01:52.535Z,97.30
2022-08-05T12:04:20.102Z,97.40
2022-08-05T12:06:50.360Z,96.70
2022-08-05T12:09:22.847Z,95.90
2022-08-05T12:12:09.865Z,95.90
2022-08-05T12:14:43.147Z,95.50
2022-08-05T12:18:03.708Z,95.00
2022-08-05T12:20:16.917Z,94.50
2022-08-05T12:23:07.480Z,93.80
2022-08-05T12:25:56.614Z,92.50
2022-08-05T12:28:34.601Z,91.40
2022-08-05T12:31:04.864Z,91.40
2022-08-05T12:33:36.456Z,91.50
2022-08-05T12:36:07.015Z,91.40
2022-08-05T12:38:40.249Z,91.40
2022-08-05T12:41:12.960Z,92.30
2022-08-05T12:43:53.223Z,93.20
2022-08-05T12:46:28.957Z,94.00
2022-08-05T12:48:57.300Z,94.30
2022-08-05T12:52:12.356Z,94.00
2022-08-05T12:54:23.388Z,95.60
2022-08-05T12:56:58.145Z,93.90
2022-08-05T13:00:08.341Z,92.80
2022-08-05T13:02:27.307Z,92.10
2022-08-05T13:04:57.719Z,91.80
2022-08-05T13:07:57.809Z,91.90
2022-08-05T13:10:14.730Z,91.40
2022-08-05T13:12:57.193Z,91.60
2022-08-05T13:15:41.872Z,92.20
2022-08-05T13:18:20.243Z,92.60
2022-08-05T13:20:49.927Z,92.60
2022-08-05T13:23:22.281Z,93.00
2022-08-05T13:25:59.218Z,91.90
2022-08-05T13:28:28.821Z,91.20
2022-08-05T13:30:57.202Z,91.10
2022-08-05T13:34:21.230Z,90.20
2022-08-05T13:36:14.472Z,87.30
2022-08-05T13:38:43.053Z,86.70
2022-08-05T13:41:11.695Z,87.80
2022-08-05T13:43:45.792Z,88.20
2022-08-05T13:47:01.970Z,89.40
2022-08-05T13:49:11.602Z,89.00
2022-08-05T13:51:40.818Z,88.10
2022-08-05T13:54:12.051Z,88.20
2022-08-05T13:56:45.153Z,89.60
2022-08-05T13:59:23.978Z,89.70
2022-08-05T14:01:59.068Z,88.40
2022-08-05T14:04:49.391Z,88.80
2022-08-05T14:07:57.010Z,91.20
2022-08-05T14:10:11.508Z,90.40
2022-08-05T14:12:39.406Z,88.40
2022-08-05T14:16:05.535Z,89.20
2022-08-05T14:17:59.822Z,90.40
2022-08-05T14:20:29.940Z,89.10
2022-08-05T14:22:58.857Z,87.90
2022-08-05T14:25:28.042Z,86.50
2022-08-05T14:27:56.028Z,87.20
2022-08-05T14:30:25.546Z,89.20
2022-08-05T14:32:54.356Z,87.80
2022-08-05T14:35:50.120Z,86.60
2022-08-05T14:38:31.623Z,84.30
2022-08-05T14:40:59.745Z,84.80
2022-08-05T14:43:59.191Z,85.00
2022-08-05T14:46:15.497Z,87.60
2022-08-05T14:48:43.606Z,85.40
2022-08-05T14:51:17.883Z,85.50
2022-08-05T14:53:46.019Z,84.40
2022-08-05T14:56:34.088Z,84.40
2022-08-05T14:59:05.507Z,85.00
2022-08-05T15:01:49.141Z,84.80
2022-08-05T15:04:17.574Z,86.20
2022-08-05T15:06:49.924Z,90.00
2022-08-05T15:09:52.509Z,87.20
2022-08-05T15:12:05.997Z,87.40
2022-08-05T15:14:42.220Z,85.90
2022-08-05T15:17:46.095Z,87.70
2022-08-05T15:20:15.640Z,86.00
2022-08-05T15:22:46.581Z,85.00
2022-08-05T15:25:23.675Z,84.30
2022-08-05T15:28:13.138Z,82.20
2022-08-05T15:30:43.384Z,82.80
2022-08-05T15:33:11.748Z,75.70
2022-08-05T15:35:45.340Z,72.40
2022-08-05T15:38:35.841Z,70.60
2022-08-05T15:41:21.236Z,71.00
2022-08-05T15:43:48.456Z,72.30
2022-08-05T15:46:15.955Z,69.20
2022-08-05T15:48:51.986Z,69.50
2022-08-05T15:52:12.596Z,69.60
2022-08-05T15:54:16.687Z,67.80
2022-08-05T15:56:44.155Z,68.40
2022-08-05T15:59:21.897Z,70.70
2022-08-05T16:01:52.517Z,70.20
2022-08-05T16:04:25.449Z,70.60
2022-08-05T16:06:56.697Z,70.10
2022-08-05T16:09:25.824Z,70.30
2022-08-05T16:11:54.343Z,69.10
2022-08-05T16:14:22.540Z,68.80
2022-08-05T16:16:50.082Z,70.60
2022-08-05T16:19:18.960Z,71.60
2022-08-05T16:21:58.563Z,73.20
2022-08-05T16:24:41.532Z,74.10
2022-08-05T16:27:16.318Z,75.10
2022-08-05T16:29:50.474Z,75.30
2022-08-05T16:32:28.383Z,77.50
2022-08-05T16:34:57.596Z,76.60
2022-08-05T16:38:02.871Z,75.00
2022-08-05T16:40:24.785Z,74.40
2022-08-05T16:42:57.173Z,74.20
2022-08-05T16:46:06.893Z,73.10
2022-08-05T16:48:25.422Z,72.90
2022-08-05T16:50:53.857Z,73.00
2022-08-05T16:53:32.299Z,72.10
2022-08-05T16:56:10.369Z,73.20
2022-08-05T16:58:40.781Z,73.10
2022-08-05T17:01:10.342Z,73.50
2022-08-05T17:03:38.002Z,75.40
2022-08-05T17:06:06.661Z,75.20
2022-08-05T17:08:52.093Z,72.70
2022-08-05T17:11:25.667Z,73.90
2022-08-05T17:14:00.579Z,75.30
2022-08-05T17:16:36.667Z,76.50
2022-08-05T17:19:07.324Z,76.80
2022-08-05T17:21:37.739Z,76.40
2022-08-05T17:24:18.482Z,77.70
2022-08-05T17:26:57.227Z,78.20
2022-08-05T17:29:40.243Z,79.40
2022-08-05T17:32:11.527Z,79.50
2022-08-05T17:34:46.184Z,80.00
2022-08-05T17:37:35.922Z,80.60
2022-08-05T17:40:10.386Z,81.00
2022-08-05T17:42:41.724Z,81.50
2022-08-05T17:45:20.612Z,81.80
2022-08-05T17:47:53.917Z,81.20
2022-08-05T17:50:28.808Z,81.40
2022-08-05T17:53:01.768Z,81.90
2022-08-05T17:55:37.976Z,82.50
2022-08-05T17:58:09.580Z,82.30
2022-08-05T18:00:44.295Z,83.00
2022-08-05T18:03:28.168Z,83.00
2022-08-05T18:06:04.497Z,83.40
2022-08-05T18:08:33.572Z,83.50
2022-08-05T18:11:03.205Z,84.20
2022-08-05T18:13:36.712Z,84.20
2022-08-05T18:16:13.391Z,83.90
2022-08-05T18:18:41.542Z,83.80
2022-08-05T18:21:20.013Z,83.70
2022-08-05T18:23:53.475Z,84.00
2022-08-05T18:26:29.574Z,84.10
2022-08-05T18:28:59.774Z,83.80
2022-08-05T18:31:33.140Z,84.30
2022-08-05T18:34:05.944Z,84.70
2022-08-05T18:36:35.415Z,85.20
2022-08-05T18:39:06.578Z,85.40
2022-08-05T18:41:57.941Z,85.90
2022-08-05T18:44:35.170Z,86.80
2022-08-05T18:47:04.036Z,86.60
2022-08-05T18:49:57.846Z,87.60
2022-08-05T18:52:33.615Z,87.60
2022-08-05T18:55:05.200Z,87.80
2022-08-05T18:57:43.106Z,88.70
2022-08-05T19:00:20.609Z,89.00
2022-08-05T19:02:48.443Z,88.90
2022-08-05T19:06:13.496Z,89.20
2022-08-05T19:08:12.237Z,89.20
2022-08-05T19:10:41.304Z,89.60
2022-08-05T19:13:12.306Z,89.80
2022-08-05T19:15:57.268Z,89.90
2022-08-05T19:18:28.826Z,90.00
2022-08-05T19:20:56.748Z,90.00
2022-08-05T19:24:07.125Z,90.40
2022-08-05T19:26:12.675Z,90.50
2022-08-05T19:28:43.656Z,90.80
2022-08-05T19:31:12.995Z,90.90
2022-08-05T19:33:48.376Z,90.90
2022-08-05T19:36:29.901Z,91.10
2022-08-05T19:38:58.933Z,91.20
2022-08-05T19:42:05.882Z,91.20
2022-08-05T19:44:18.497Z,91.60
2022-08-05T19:46:46.302Z,91.60
2022-08-05T19:49:17.209Z,92.00
2022-08-05T19:52:09.260Z,92.20
2022-08-05T19:54:34.656Z,92.40
2022-08-05T19:57:06.430Z,92.20
2022-08-05T20:00:01.334Z,92.40
2022-08-05T20:02:26.035Z,92.60
2022-08-05T20:04:55.448Z,92.70
2022-08-05T20:07:47.157Z,92.90
2022-08-05T20:10:17.337Z,93.00
2022-08-05T20:12:49.203Z,93.10
2022-08-05T20:15:48.125Z,93.40
2022-08-05T20:18:10.430Z,93.60
2022-08-05T20:20:55.177Z,93.70
2022-08-05T20:23:23.893Z,93.90
2022-08-05T20:26:09.248Z,93.90
2022-08-05T20:28:44.916Z,94.00
2022-08-05T20:31:12.747Z,94.40
2022-08-05T20:33:42.490Z,94.40
2022-08-05T20:36:11.122Z,94.50
2022-08-05T20:38:40.786Z,94.50
2022-08-05T20:41:24.075Z,94.60
2022-08-05T20:43:59.877Z,95.00
2022-08-05T20:46:30.246Z,95.30
2022-08-05T20:48:57.648Z,95.30
2022-08-05T20:51:26.221Z,95.40
2022-08-05T20:53:56.632Z,95.50
2022-08-05T20:56:31.904Z,95.80
2022-08-05T20:59:11.284Z,95.90
2022-08-05T21:01:45.001Z,95.90
2022-08-05T21:04:12.633Z,96.10
2022-08-05T21:06:45.469Z,96.20
2022-08-05T21:09:14.525Z,96.30
2022-08-05T21:12:08.913Z,96.50
2022-08-05T21:14:34.773Z,96.60
2022-08-05T21:17:05.093Z,96.70
2022-08-05T21:19:47.287Z,96.90
2022-08-05T21:22:18.546Z,97.00
2022-08-05T21:24:52.034Z,97.20
2022-08-05T21:27:25.107Z,97.40
2022-08-05T21:29:55.900Z,97.60
2022-08-05T21:32:27.545Z,97.80
2022-08-05T21:35:08.481Z,97.80
2022-08-05T21:37:53.106Z,97.90
2022-08-05T21:40:25.086Z,97.90
2022-08-05T21:42:53.105Z,98.00
2022-08-05T21:45:24.915Z,98.10
2022-08-05T21:48:06.411Z,98.20
2022-08-05T21:50:34.162Z,98.30
2022-08-05T21:53:17.623Z,98.40
2022-08-05T21:56:04.754Z,98.50
2022-08-05T21:58:33.443Z,98.60
2022-08-05T22:01:01.702Z,99.00
2022-08-05T22:03:53.226Z,98.90
2022-08-05T22:06:22.173Z,99.10
2022-08-05T22:08:52.062Z,99.20
2022-08-05T22:11:35.554Z,99.30
2022-08-05T22:14:34.068Z,99.50
2022-08-05T22:16:55.892Z,99.60
2022-08-05T22:20:00.423Z,99.70
2022-08-05T22:22:12.931Z,99.90
2022-08-05T22:25:01.209Z,99.90
2022-08-05T22:28:09.001Z,99.90
2022-08-05T22:30:35.122Z,99.90
2022-08-05T22:33:04.532Z,99.90
2022-08-05T22:35:48.559Z,99.90
2022-08-05T22:38:17.090Z,99.90
2022-08-05T22:40:49.387Z,99.90
2022-08-05T22:43:37.106Z,99.90
2022-08-05T22:46:13.779Z,99.90
2022-08-05T22:48:51.115Z,99.90
2022-08-05T22:51:23.248Z,99.90
2022-08-05T22:54:06.351Z,99.90
2022-08-05T22:56:34.806Z,99.90
2022-08-05T22:59:48.576Z,99.90
2022-08-05T23:02:05.788Z,99.90
2022-08-05T23:04:35.983Z,99.90
2022-08-05T23:07:03.479Z,99.90
2022-08-05T23:09:57.280Z,99.90
2022-08-05T23:12:20.381Z,99.90
2022-08-05T23:14:51.807Z,99.90
2022-08-05T23:17:34.284Z,99.90
2022-08-05T23:20:10.404Z,99.90
2022-08-05T23:22:47.719Z,99.90
2022-08-05T23:25:17.086Z,99.90
2022-08-05T23:28:06.895Z,99.90
2022-08-05T23:30:40.239Z,99.90
2022-08-05T23:33:16.486Z,99.90
2022-08-05T23:35:50.523Z,99.90
2022-08-05T23:38:18.412Z,99.90
2022-08-05T23:40:49.369Z,99.90
2022-08-05T23:43:25.700Z,99.90
2022-08-05T23:46:21.062Z,99.90
2022-08-05T23:49:01.113Z,99.90
2022-08-05T23:51:53.969Z,99.90
2022-08-05T23:54:26.637Z,99.90
2022-08-05T23:57:03.277Z,99.90
